Pagrindinis puslapis
METAR-TAF:

METAR-TAF

Oro uostai :

Kasteljon de la Plana, Ispanija

platuma: 40-12-35N, ilguma: 0-04-11E, Aukštis: 360 m

Dabartinis oras

Ataskaita buvo paskelbta 27 minutes, ne 11:30 UTC
Vėjas 5 kt iš Šiaurės/Šiaurės Rytų, svyruoja nuo Šiaurės ir Rytų/Šiaurės Rytų
Temperatūra 11°C
Drėgmė 87%
Slėgis 1020 hPa
Matomumas: 8000 m
Su prošvaistėmis ne aukštis 1100 ft

METAR: LECH 251130Z AUTO 03005KT 350V060 8000 BKN011 11/09 Q1020

Laikas: 12:57 (11:57 UTC)


TAF: trūkstamas

Orai ataskaitas ir orų prognozės (METAR, TAF).

turimą stotys yra geltonos ir raudonos taškus žemėlapyje.

Perkelti pele per norėdami pamatyti stoties vardą.

Tada spustelėkite, norėdami matyti oro stebėjimo ir prognozės.

Norėdami pakeisti žemėlapį: spustelėkite ant žalios mygtukų su juodo kryžiaus žemyn,; žalią mygtuką su brūkšneliu, jei norite nutolinti; arba žalių rodyklių gretimoms žemėlapius.


METAR-TAF: